Terminal Aerodrome Forecast
Issued by NWS Bismarck, ND

Home | Current Version | Previous Version | Text Only | Print | Product List | Glossary On
Versions: 1 2 3 4 5 6 7 8 9 10 11 12 13 14
000
FTUS43 KBIS 230500
TAFBIS
TAF
KBIS 230538Z 2306/2406 25010KT P6SM VCSH SCT050 BKN070 OVC150
     FM231000 27015KT P6SM SCT020 BKN035
     FM231400 30022G32KT P6SM -SN BKN025
     FM231800 31026G33KT 6SM -SN BLSN OVC015
     FM240200 33017KT P6SM OVC025=

USA.gov is the U.S. government's official web portal to all federal, state and local government web resources and services.